Time;durP1;ratioP1;P1;durP2;ratioP2;P2;SDS_P1;SDS_P2;PMS_P1;PMS_P2;Temp;Humidity;BMP_temperature;BMP_pressure;BME280_temperature;BME280_humidity;BME280_pressure;Samples;Min_cycle;Max_cycle;Signal;HPM_P1;HPM_P2
2023/12/22 00:01:25;;;;;;;20.73;3.53;;;;;;;;;;5013041;28;20046;-69
2023/12/22 00:03:51;;;;;;;31.77;4.20;;;;;;;;;;5012754;28;20096;-69
2023/12/22 00:06:17;;;;;;;26.58;3.70;;;;;;;;;;5012355;28;20042;-69
2023/12/22 00:08:43;;;;;;;20.48;3.80;;;;;;;;;;5012862;28;20048;-69
2023/12/22 00:11:10;;;;;;;22.80;3.90;;;;;;;;;;5012762;28;20461;-69
2023/12/22 00:13:36;;;;;;;26.98;4.38;;;;;;;;;;5012510;28;20397;-69
2023/12/22 00:16:02;;;;;;;22.60;4.65;;;;;;;;;;5012423;28;20056;-69
2023/12/22 00:18:28;;;;;;;25.85;4.20;;;;;;;;;;5007316;28;20034;-69
2023/12/22 00:20:54;;;;;;;26.05;3.70;;;;;;;;;;4992741;28;20049;-69
2023/12/22 00:23:20;;;;;;;26.20;4.60;;;;;;;;;;4992893;28;20595;-69
2023/12/22 00:25:46;;;;;;;33.63;6.28;;;;;;;;;;4999744;28;20045;-69
2023/12/22 00:28:12;;;;;;;26.15;4.22;;;;;;;;;;5011999;28;20641;-69
2023/12/22 00:30:38;;;;;;;21.33;3.50;;;;;;;;;;5012262;28;20584;-69
2023/12/22 00:33:04;;;;;;;26.00;4.68;;;;;;;;;;5012558;28;20125;-69
2023/12/22 00:35:30;;;;;;;26.80;4.07;;;;;;;;;;5010567;28;20488;-69
2023/12/22 00:37:57;;;;;;;21.67;3.10;;;;;;;;;;5012262;28;20038;-69
2023/12/22 00:40:23;;;;;;;20.17;3.17;;;;;;;;;;5010829;28;20052;-69
2023/12/22 00:42:49;;;;;;;19.08;3.00;;;;;;;;;;5011830;28;20481;-69
2023/12/22 00:45:15;;;;;;;21.88;2.47;;;;;;;;;;5012180;28;20042;-69
2023/12/22 00:47:41;;;;;;;15.25;2.85;;;;;;;;;;4994109;28;20053;-69
2023/12/22 00:50:08;;;;;;;13.25;2.30;;;;;;;;;;5011492;28;20045;-69
2023/12/22 00:52:34;;;;;;;14.85;2.92;;;;;;;;;;5012093;28;20034;-69
2023/12/22 00:55:00;;;;;;;13.25;2.83;;;;;;;;;;5012312;28;20466;-69
2023/12/22 00:57:26;;;;;;;23.45;3.42;;;;;;;;;;5011523;28;20046;-69
2023/12/22 00:59:52;;;;;;;13.93;2.72;;;;;;;;;;5011918;28;20054;-69
2023/12/22 01:02:18;;;;;;;17.83;3.17;;;;;;;;;;5011635;28;20042;-69
2023/12/22 01:04:45;;;;;;;25.42;3.60;;;;;;;;;;5010079;28;20050;-69
2023/12/22 01:07:12;;;;;;;22.48;3.15;;;;;;;;;;5011903;28;20043;-69
2023/12/22 01:09:38;;;;;;;20.65;3.78;;;;;;;;;;5010536;28;20041;-69
2023/12/22 01:12:06;;;;;;;24.73;3.30;;;;;;;;;;5011500;28;20041;-69
2023/12/22 01:14:32;;;;;;;26.55;3.38;;;;;;;;;;5010129;28;20500;-69
2023/12/22 01:17:00;;;;;;;24.13;4.13;;;;;;;;;;5011635;28;20052;-69
2023/12/22 01:19:26;;;;;;;22.23;3.70;;;;;;;;;;4999671;28;20041;-69
2023/12/22 01:21:52;;;;;;;29.20;4.13;;;;;;;;;;4991932;28;20392;-69
2023/12/22 01:24:18;;;;;;;23.25;3.58;;;;;;;;;;4990567;28;20049;-69
2023/12/22 01:26:44;;;;;;;21.48;3.58;;;;;;;;;;5006603;28;20052;-69
2023/12/22 01:29:10;;;;;;;20.55;4.35;;;;;;;;;;5011360;28;20038;-69
2023/12/22 01:31:36;;;;;;;18.40;3.03;;;;;;;;;;5011507;28;20112;-69
2023/12/22 01:34:02;;;;;;;24.70;3.92;;;;;;;;;;5010011;28;20046;-69
2023/12/22 01:36:28;;;;;;;24.95;4.72;;;;;;;;;;5011452;28;20034;-69
2023/12/22 01:38:54;;;;;;;19.38;3.38;;;;;;;;;;5011105;28;20041;-69
2023/12/22 01:41:20;;;;;;;19.83;3.35;;;;;;;;;;5010731;28;20034;-69
2023/12/22 01:43:47;;;;;;;27.23;4.18;;;;;;;;;;5011195;28;20049;-69
2023/12/22 01:46:13;;;;;;;19.30;2.63;;;;;;;;;;5011078;28;20053;-69
2023/12/22 01:48:39;;;;;;;20.73;3.45;;;;;;;;;;5011014;28;20520;-69
2023/12/22 01:51:06;;;;;;;20.67;3.20;;;;;;;;;;5011351;28;20049;-69
2023/12/22 01:53:33;;;;;;;23.35;3.10;;;;;;;;;;4993467;28;20042;-69
2023/12/22 01:56:00;;;;;;;17.73;3.30;;;;;;;;;;5014097;28;20122;-69
2023/12/22 01:58:27;;;;;;;19.88;2.55;;;;;;;;;;5015221;28;20044;-69
2023/12/22 02:00:53;;;;;;;22.92;3.33;;;;;;;;;;5015330;28;20073;-69
2023/12/22 02:03:19;;;;;;;20.75;4.30;;;;;;;;;;5014874;28;20038;-69
2023/12/22 02:05:46;;;;;;;28.05;3.80;;;;;;;;;;5015256;28;20481;-69
2023/12/22 02:08:12;;;;;;;22.02;3.53;;;;;;;;;;5014981;28;20046;-69
2023/12/22 02:10:39;;;;;;;22.73;3.60;;;;;;;;;;5014810;28;20718;-69
2023/12/22 02:13:05;;;;;;;19.90;4.25;;;;;;;;;;5015120;28;20128;-69
2023/12/22 02:15:32;;;;;;;26.35;3.90;;;;;;;;;;5014894;28;20048;-69
2023/12/22 02:18:11;;;;;;;22.38;4.20;;;;;;;;;;5014614;28;20541;-69
2023/12/22 02:20:37;;;;;;;19.67;3.67;;;;;;;;;;4994017;28;20050;-69
2023/12/22 02:23:03;;;;;;;22.30;3.63;;;;;;;;;;4995146;28;20038;-69
2023/12/22 02:25:29;;;;;;;24.67;4.20;;;;;;;;;;4999648;28;20042;-69
2023/12/22 02:28:02;;;;;;;16.20;3.40;;;;;;;;;;5014589;28;20045;-69
2023/12/22 02:30:37;;;;;;;26.60;4.72;;;;;;;;;;5014482;28;20061;-69
2023/12/22 02:33:04;;;;;;;26.48;4.28;;;;;;;;;;5014249;28;20476;-69
2023/12/22 02:35:32;;;;;;;20.83;3.72;;;;;;;;;;5014581;28;20144;-69
2023/12/22 02:37:59;;;;;;;17.17;2.85;;;;;;;;;;5014226;28;20074;-69
2023/12/22 02:40:25;;;;;;;26.25;3.85;;;;;;;;;;5014231;28;20045;-69
2023/12/22 02:42:53;;;;;;;15.15;2.67;;;;;;;;;;5014263;28;20077;-69
2023/12/22 02:45:20;;;;;;;19.77;3.05;;;;;;;;;;5014165;28;20045;-69
2023/12/22 02:47:46;;;;;;;19.13;2.33;;;;;;;;;;5013914;28;20082;-69
2023/12/22 02:50:13;;;;;;;14.95;2.92;;;;;;;;;;5012835;28;20046;-69
2023/12/22 02:52:39;;;;;;;20.17;2.65;;;;;;;;;;5014245;28;20412;-69
2023/12/22 02:55:06;;;;;;;12.43;2.10;;;;;;;;;;5012265;28;20053;-69
2023/12/22 02:57:32;;;;;;;18.17;2.92;;;;;;;;;;5012566;28;20692;-69
2023/12/22 02:59:59;;;;;;;8.00;2.08;;;;;;;;;;5014071;28;20358;-69
2023/12/22 03:02:25;;;;;;;13.18;1.80;;;;;;;;;;5012371;28;20393;-69
2023/12/22 03:04:51;;;;;;;10.13;1.77;;;;;;;;;;5014148;28;20579;-69
2023/12/22 03:07:17;;;;;;;11.68;2.15;;;;;;;;;;5013690;28;20136;-69
2023/12/22 03:09:44;;;;;;;11.93;1.67;;;;;;;;;;5013595;28;20504;-69
2023/12/22 03:12:10;;;;;;;13.80;1.70;;;;;;;;;;5013726;28;20064;-69
2023/12/22 03:14:37;;;;;;;15.27;2.22;;;;;;;;;;5013896;28;20421;-69
2023/12/22 03:17:04;;;;;;;11.75;2.03;;;;;;;;;;5013506;28;20042;-69
2023/12/22 03:19:30;;;;;;;14.05;2.53;;;;;;;;;;5001765;28;20042;-69
2023/12/22 03:21:56;;;;;;;11.70;1.65;;;;;;;;;;4994185;28;20042;-69
2023/12/22 03:24:23;;;;;;;9.88;1.65;;;;;;;;;;4993889;28;20125;-69
2023/12/22 03:26:49;;;;;;;13.45;1.60;;;;;;;;;;5009525;28;20745;-69
2023/12/22 03:29:15;;;;;;;11.73;1.90;;;;;;;;;;5013325;28;20428;-69
2023/12/22 03:31:41;;;;;;;9.23;1.65;;;;;;;;;;5013124;28;20629;-69
2023/12/22 03:34:08;;;;;;;8.90;1.38;;;;;;;;;;5013498;28;20041;-69
2023/12/22 03:36:34;;;;;;;8.88;1.35;;;;;;;;;;5013459;28;20476;-69
2023/12/22 03:39:00;;;;;;;7.15;1.40;;;;;;;;;;5013190;28;20161;-69
2023/12/22 03:41:26;;;;;;;11.63;1.77;;;;;;;;;;5013278;28;20425;-69
2023/12/22 03:43:52;;;;;;;8.65;1.50;;;;;;;;;;5013621;28;20042;-69
2023/12/22 03:46:18;;;;;;;17.33;1.95;;;;;;;;;;5013295;28;20520;-69
2023/12/22 03:48:45;;;;;;;11.75;2.00;;;;;;;;;;5011546;28;20061;-69
2023/12/22 03:51:13;;;;;;;15.32;2.22;;;;;;;;;;5011649;28;20053;-69
2023/12/22 03:53:39;;;;;;;13.55;1.90;;;;;;;;;;5013162;28;20053;-69
2023/12/22 03:56:05;;;;;;;15.23;2.47;;;;;;;;;;5012654;28;20045;-69
2023/12/22 03:58:31;;;;;;;20.45;2.88;;;;;;;;;;5011480;28;20033;-69
2023/12/22 04:00:57;;;;;;;16.83;2.65;;;;;;;;;;5012739;28;20038;-69
2023/12/22 04:03:23;;;;;;;17.08;2.28;;;;;;;;;;5012497;28;20511;-69
2023/12/22 04:05:49;;;;;;;15.65;2.40;;;;;;;;;;5012981;28;20046;-69
2023/12/22 04:08:15;;;;;;;14.02;2.58;;;;;;;;;;5012367;28;20056;-69
2023/12/22 04:10:43;;;;;;;20.92;2.90;;;;;;;;;;5010988;28;20506;-69
2023/12/22 04:13:09;;;;;;;18.08;3.38;;;;;;;;;;5012691;28;20125;-69
2023/12/22 04:15:35;;;;;;;19.27;2.58;;;;;;;;;;5011450;28;20124;-69
2023/12/22 04:18:01;;;;;;;18.45;2.65;;;;;;;;;;5011734;28;20610;-69
2023/12/22 04:20:27;;;;;;;16.15;2.58;;;;;;;;;;4992874;28;20489;-69
2023/12/22 04:22:53;;;;;;;11.13;2.20;;;;;;;;;;4993110;28;20111;-69
2023/12/22 04:25:19;;;;;;;16.75;3.17;;;;;;;;;;4995974;28;20042;-69
2023/12/22 04:27:45;;;;;;;16.67;2.45;;;;;;;;;;5012203;28;20034;-69
2023/12/22 04:30:12;;;;;;;18.20;3.00;;;;;;;;;;4994537;28;20061;-69
2023/12/22 04:32:38;;;;;;;19.05;3.03;;;;;;;;;;5012044;28;20041;-69
2023/12/22 04:35:04;;;;;;;14.02;2.50;;;;;;;;;;5012329;28;20034;-69
2023/12/22 04:37:30;;;;;;;17.15;2.50;;;;;;;;;;5012069;28;20049;-69
2023/12/22 04:39:56;;;;;;;19.85;3.05;;;;;;;;;;5010434;28;20112;-69
2023/12/22 04:42:22;;;;;;;19.17;2.90;;;;;;;;;;5012353;28;20100;-69
2023/12/22 04:44:48;;;;;;;14.98;2.58;;;;;;;;;;5012203;28;20083;-69
2023/12/22 04:47:15;;;;;;;16.45;3.90;;;;;;;;;;5011948;28;20084;-69
2023/12/22 04:49:41;;;;;;;19.38;2.53;;;;;;;;;;5012017;28;20073;-69
2023/12/22 04:52:07;;;;;;;22.40;3.13;;;;;;;;;;5010786;28;20057;-69
2023/12/22 04:54:33;;;;;;;16.48;3.38;;;;;;;;;;5011937;28;20046;-69
2023/12/22 04:56:59;;;;;;;20.05;2.70;;;;;;;;;;5012117;28;20073;-69
2023/12/22 04:59:25;;;;;;;16.45;2.90;;;;;;;;;;5012078;28;20107;-69
2023/12/22 05:01:51;;;;;;;22.27;3.65;;;;;;;;;;5011630;28;20669;-69
2023/12/22 05:04:17;;;;;;;17.27;2.88;;;;;;;;;;5011762;28;20428;-69
2023/12/22 05:06:45;;;;;;;15.27;3.10;;;;;;;;;;5011605;28;20092;-69
2023/12/22 05:09:12;;;;;;;17.40;3.53;;;;;;;;;;5011304;28;20065;-69
2023/12/22 05:11:38;;;;;;;12.82;2.42;;;;;;;;;;5011657;28;20049;-69
2023/12/22 05:14:04;;;;;;;23.45;3.13;;;;;;;;;;5011974;28;20053;-69
2023/12/22 05:16:31;;;;;;;13.13;3.13;;;;;;;;;;5011433;28;20119;-69
2023/12/22 05:19:00;;;;;;;21.15;3.88;;;;;;;;;;5011750;28;20033;-69
2023/12/22 05:21:27;;;;;;;24.35;3.33;;;;;;;;;;5011640;28;20066;-69
2023/12/22 05:23:54;;;;;;;18.98;2.65;;;;;;;;;;5011415;28;20046;-69
2023/12/22 05:26:21;;;;;;;19.73;2.97;;;;;;;;;;4999929;28;20042;-69
2023/12/22 05:28:49;;;;;;;19.02;3.33;;;;;;;;;;4991467;28;20057;-69
2023/12/22 05:31:15;;;;;;;19.88;3.03;;;;;;;;;;4991229;28;20062;-69
2023/12/22 05:33:41;;;;;;;19.98;3.17;;;;;;;;;;4991810;28;20050;-69
2023/12/22 05:36:07;;;;;;;21.33;3.72;;;;;;;;;;4991983;28;20489;-69
2023/12/22 05:38:37;;;;;;;17.35;2.88;;;;;;;;;;4991346;28;20389;-69
2023/12/22 05:41:03;;;;;;;19.30;3.47;;;;;;;;;;4991988;28;20042;-69
2023/12/22 05:43:29;;;;;;;20.73;3.20;;;;;;;;;;4990379;28;20049;-69
2023/12/22 05:45:55;;;;;;;21.52;3.05;;;;;;;;;;4991470;28;20465;-69
2023/12/22 05:48:21;;;;;;;18.05;2.63;;;;;;;;;;4991763;28;20053;-69
2023/12/22 05:50:48;;;;;;;23.63;3.65;;;;;;;;;;4991869;28;20445;-69
2023/12/22 05:53:15;;;;;;;19.55;2.88;;;;;;;;;;4991535;28;20038;-69
2023/12/22 05:55:41;;;;;;;19.02;2.72;;;;;;;;;;4991695;28;20057;-69
2023/12/22 05:58:07;;;;;;;18.85;3.40;;;;;;;;;;4990368;28;20108;-69
2023/12/22 06:00:33;;;;;;;19.27;3.17;;;;;;;;;;4991241;28;20042;-69
2023/12/22 06:02:59;;;;;;;16.13;3.00;;;;;;;;;;4990513;28;20474;-69
2023/12/22 06:05:25;;;;;;;18.20;3.05;;;;;;;;;;4991396;28;20046;-69
2023/12/22 06:07:51;;;;;;;12.63;2.85;;;;;;;;;;4990998;28;20081;-69
2023/12/22 06:10:17;;;;;;;15.00;2.90;;;;;;;;;;4990004;28;20528;-69
2023/12/22 06:12:43;;;;;;;19.38;3.05;;;;;;;;;;4991625;28;20601;-69
2023/12/22 06:15:10;;;;;;;21.13;2.75;;;;;;;;;;4991354;28;20042;-69
2023/12/22 06:17:37;;;;;;;24.20;3.35;;;;;;;;;;4991259;28;20061;-69
2023/12/22 06:20:04;;;;;;;20.10;3.75;;;;;;;;;;5007605;28;20528;-69
2023/12/22 06:22:30;;;;;;;12.15;2.10;;;;;;;;;;5010969;28;20046;-69
2023/12/22 06:24:56;;;;;;;16.98;2.95;;;;;;;;;;5010819;28;20526;-69
2023/12/22 06:27:22;;;;;;;18.15;3.03;;;;;;;;;;5010690;28;20056;-69
2023/12/22 06:29:48;;;;;;;13.40;2.78;;;;;;;;;;5010059;28;20054;-69
2023/12/22 06:32:14;;;;;;;23.15;3.03;;;;;;;;;;5011166;28;20053;-69
2023/12/22 06:34:40;;;;;;;16.50;2.88;;;;;;;;;;5010776;28;20042;-69
2023/12/22 06:37:08;;;;;;;20.05;2.83;;;;;;;;;;4992963;28;20046;-68
2023/12/22 06:39:34;;;;;;;22.10;3.38;;;;;;;;;;4991155;28;20050;-68
2023/12/22 06:42:00;;;;;;;17.42;2.63;;;;;;;;;;4993908;28;20117;-68
2023/12/22 06:44:26;;;;;;;17.05;2.95;;;;;;;;;;4994744;28;20042;-67
2023/12/22 06:46:52;;;;;;;17.52;3.10;;;;;;;;;;4995002;28;20046;-67
2023/12/22 06:49:18;;;;;;;16.88;3.33;;;;;;;;;;4994412;28;20529;-67
2023/12/22 06:51:44;;;;;;;20.42;2.58;;;;;;;;;;4994130;28;20057;-67
2023/12/22 06:54:10;;;;;;;17.73;3.13;;;;;;;;;;4994494;28;20588;-67
2023/12/22 06:56:36;;;;;;;14.13;3.05;;;;;;;;;;4994182;28;20046;-67
2023/12/22 06:59:03;;;;;;;16.67;2.40;;;;;;;;;;4993796;28;20054;-67
2023/12/22 07:01:33;;;;;;;11.32;2.35;;;;;;;;;;4994470;28;20125;-67
2023/12/22 07:04:01;;;;;;;18.85;2.58;;;;;;;;;;4994599;28;20369;-67
2023/12/22 07:06:28;;;;;;;17.10;2.80;;;;;;;;;;4993835;28;20069;-67
2023/12/22 07:09:15;;;;;;;23.95;2.85;;;;;;;;;;4994226;28;20034;-67
2023/12/22 07:11:42;;;;;;;19.80;2.65;;;;;;;;;;4994448;28;20100;-67
2023/12/22 07:14:09;;;;;;;24.55;3.97;;;;;;;;;;4996203;28;20042;-67
2023/12/22 07:16:36;;;;;;;16.65;3.15;;;;;;;;;;4999497;28;20125;-67
2023/12/22 07:19:02;;;;;;;20.70;3.13;;;;;;;;;;5006785;28;20038;-67
2023/12/22 07:21:28;;;;;;;18.80;3.25;;;;;;;;;;4996103;28;20048;-67
2023/12/22 07:23:55;;;;;;;13.80;2.40;;;;;;;;;;4993930;28;20117;-68
2023/12/22 07:26:21;;;;;;;19.00;2.67;;;;;;;;;;5005282;28;20604;-68
2023/12/22 07:28:48;;;;;;;15.10;2.88;;;;;;;;;;5012777;28;20608;-68
2023/12/22 07:31:14;;;;;;;19.35;3.33;;;;;;;;;;5010204;28;20058;-67
2023/12/22 07:33:40;;;;;;;16.48;2.72;;;;;;;;;;5006090;28;20074;-68
2023/12/22 07:36:06;;;;;;;17.42;3.13;;;;;;;;;;5000507;28;20042;-68
2023/12/22 07:38:33;;;;;;;15.90;2.55;;;;;;;;;;4993414;28;20057;-68
2023/12/22 07:40:59;;;;;;;22.10;3.28;;;;;;;;;;4996921;28;20061;-69
2023/12/22 07:43:25;;;;;;;21.83;2.92;;;;;;;;;;5005988;28;20477;-70
2023/12/22 07:45:51;;;;;;;16.98;2.90;;;;;;;;;;4993110;28;20078;-69
2023/12/22 07:48:18;;;;;;;15.23;2.45;;;;;;;;;;5004860;28;20180;-69
2023/12/22 07:50:45;;;;;;;18.38;3.17;;;;;;;;;;4995224;28;20038;-68
2023/12/22 07:53:11;;;;;;;22.92;3.42;;;;;;;;;;4991887;28;20109;-68
2023/12/22 07:55:38;;;;;;;22.73;2.85;;;;;;;;;;5000510;28;20042;-68
2023/12/22 07:58:07;;;;;;;19.98;2.75;;;;;;;;;;4992340;28;20097;-67
2023/12/22 08:00:34;;;;;;;22.88;3.15;;;;;;;;;;5005393;28;20050;-69
2023/12/22 08:03:00;;;;;;;25.85;3.22;;;;;;;;;;4995498;28;20579;-70
2023/12/22 08:05:26;;;;;;;24.25;4.18;;;;;;;;;;5000583;28;20069;-69
2023/12/22 08:07:53;;;;;;;22.67;2.90;;;;;;;;;;4990777;28;20454;-68
2023/12/22 08:10:19;;;;;;;21.13;3.30;;;;;;;;;;4990577;28;20042;-69
2023/12/22 08:12:45;;;;;;;23.15;3.38;;;;;;;;;;4992500;28;20532;-67
2023/12/22 08:15:11;;;;;;;21.95;3.13;;;;;;;;;;4999944;28;20045;-68
2023/12/22 08:17:38;;;;;;;28.75;3.72;;;;;;;;;;4994031;28;20050;-68
2023/12/22 08:20:08;;;;;;;18.05;3.95;;;;;;;;;;5007772;28;20059;-68
2023/12/22 08:22:34;;;;;;;15.38;2.42;;;;;;;;;;4999714;28;20049;-68
2023/12/22 08:25:00;;;;;;;27.15;3.75;;;;;;;;;;4998502;28;20091;-68
2023/12/22 08:27:26;;;;;;;19.70;3.85;;;;;;;;;;4991956;28;20046;-68
2023/12/22 08:29:52;;;;;;;24.95;3.20;;;;;;;;;;4990796;28;20066;-68
2023/12/22 08:32:19;;;;;;;18.02;2.35;;;;;;;;;;4991883;28;20050;-69
2023/12/22 08:34:45;;;;;;;22.25;2.92;;;;;;;;;;4991524;28;20038;-68
2023/12/22 08:37:11;;;;;;;16.45;2.38;;;;;;;;;;4989878;28;20097;-68
2023/12/22 08:39:38;;;;;;;21.02;2.47;;;;;;;;;;4994555;28;20034;-68
2023/12/22 08:42:04;;;;;;;9.32;1.88;;;;;;;;;;5003050;28;20050;-68
2023/12/22 08:44:30;;;;;;;16.08;2.50;;;;;;;;;;4991209;28;20050;-68
2023/12/22 08:46:56;;;;;;;9.10;1.50;;;;;;;;;;4990431;28;20551;-69
2023/12/22 08:49:22;;;;;;;10.85;2.05;;;;;;;;;;4990940;28;20061;-69
2023/12/22 08:51:48;;;;;;;6.28;1.50;;;;;;;;;;4990648;28;20042;-69
2023/12/22 08:54:15;;;;;;;8.40;1.20;;;;;;;;;;4991429;28;20546;-68
2023/12/22 08:56:41;;;;;;;10.00;1.17;;;;;;;;;;4990353;28;20050;-68
2023/12/22 08:59:08;;;;;;;7.00;1.20;;;;;;;;;;4990984;28;20072;-68
2023/12/22 09:01:35;;;;;;;9.30;1.20;;;;;;;;;;5007096;28;20058;-68
2023/12/22 09:04:01;;;;;;;5.07;1.02;;;;;;;;;;4991147;28;20038;-68
2023/12/22 09:06:27;;;;;;;3.95;1.10;;;;;;;;;;4990943;28;20509;-69
2023/12/22 09:08:53;;;;;;;4.07;0.98;;;;;;;;;;4990123;28;20092;-69
2023/12/22 09:11:21;;;;;;;3.97;0.90;;;;;;;;;;4991308;28;20042;-68
2023/12/22 09:13:47;;;;;;;4.80;1.00;;;;;;;;;;4989487;28;20046;-68
2023/12/22 09:16:15;;;;;;;5.00;1.00;;;;;;;;;;4999282;28;20532;-68
2023/12/22 09:18:42;;;;;;;5.75;0.93;;;;;;;;;;4995284;28;20056;-68
2023/12/22 09:21:08;;;;;;;9.30;0.90;;;;;;;;;;5010269;28;20074;-68
2023/12/22 09:23:34;;;;;;;4.63;0.80;;;;;;;;;;4997805;28;20104;-69
2023/12/22 09:26:00;;;;;;;6.47;0.80;;;;;;;;;;4996180;28;20046;-68
2023/12/22 09:28:26;;;;;;;4.50;1.23;;;;;;;;;;4990896;28;20078;-66
2023/12/22 09:30:52;;;;;;;7.70;1.05;;;;;;;;;;4990564;28;20774;-65
2023/12/22 09:33:18;;;;;;;7.55;1.10;;;;;;;;;;4991145;28;20129;-68
2023/12/22 09:35:44;;;;;;;6.80;0.82;;;;;;;;;;4998376;28;20081;-68
2023/12/22 09:38:14;;;;;;;4.15;1.00;;;;;;;;;;4990131;28;20061;-67
2023/12/22 09:40:41;;;;;;;6.60;1.00;;;;;;;;;;4992199;28;20050;-65
2023/12/22 09:43:08;;;;;;;6.82;0.95;;;;;;;;;;4998503;28;20121;-65
2023/12/22 09:45:35;;;;;;;3.78;1.00;;;;;;;;;;4993399;28;20381;-66
2023/12/22 09:48:02;;;;;;;6.80;1.20;;;;;;;;;;4990995;28;20058;-66
2023/12/22 09:50:28;;;;;;;6.40;1.10;;;;;;;;;;4992825;28;20052;-65
2023/12/22 09:52:54;;;;;;;7.65;1.30;;;;;;;;;;4991218;28;20042;-65
2023/12/22 09:55:23;;;;;;;4.65;1.40;;;;;;;;;;4996734;28;20034;-65
2023/12/22 09:57:50;;;;;;;7.03;1.10;;;;;;;;;;5009589;28;20133;-65
2023/12/22 10:00:18;;;;;;;7.82;1.45;;;;;;;;;;4991825;28;20045;-65
2023/12/22 10:02:45;;;;;;;7.38;1.40;;;;;;;;;;5007721;28;20038;-65
2023/12/22 10:05:14;;;;;;;11.88;1.52;;;;;;;;;;5007021;28;20046;-65
2023/12/22 10:07:45;;;;;;;12.00;2.17;;;;;;;;;;4990563;28;20081;-66
2023/12/22 10:10:12;;;;;;;9.27;1.67;;;;;;;;;;4990806;28;20042;-66
2023/12/22 10:12:42;;;;;;;14.32;2.22;;;;;;;;;;4990583;28;20516;-67
2023/12/22 10:15:10;;;;;;;12.65;2.00;;;;;;;;;;4995009;28;20042;-67
2023/12/22 10:17:36;;;;;;;11.93;1.85;;;;;;;;;;4995999;28;20054;-67
2023/12/22 10:20:03;;;;;;;14.50;2.08;;;;;;;;;;5011462;28;20037;-66
2023/12/22 10:22:30;;;;;;;10.32;1.95;;;;;;;;;;4996747;28;20388;-66
2023/12/22 10:24:57;;;;;;;12.23;1.80;;;;;;;;;;4994706;28;20042;-66
2023/12/22 10:27:24;;;;;;;17.95;2.72;;;;;;;;;;4995769;28;20053;-66
2023/12/22 10:29:50;;;;;;;14.20;1.90;;;;;;;;;;5009838;28;20586;-66
2023/12/22 10:32:17;;;;;;;16.58;3.00;;;;;;;;;;5012236;28;20049;-66
2023/12/22 10:34:43;;;;;;;19.60;2.47;;;;;;;;;;5007150;28;20053;-66
2023/12/22 10:37:11;;;;;;;14.65;2.20;;;;;;;;;;4995065;28;20057;-66
2023/12/22 10:39:37;;;;;;;14.43;2.22;;;;;;;;;;4993854;28;20042;-66
2023/12/22 10:42:04;;;;;;;14.95;2.30;;;;;;;;;;4993833;28;20491;-66
2023/12/22 10:44:30;;;;;;;17.17;2.40;;;;;;;;;;4994225;28;20034;-66
2023/12/22 10:46:56;;;;;;;12.75;1.77;;;;;;;;;;4996206;28;20053;-66
2023/12/22 10:49:23;;;;;;;13.57;2.25;;;;;;;;;;4993533;28;20050;-67
2023/12/22 10:51:49;;;;;;;10.82;2.60;;;;;;;;;;4993828;28;20133;-65
2023/12/22 10:54:16;;;;;;;16.98;1.92;;;;;;;;;;4993279;28;20130;-66
2023/12/22 10:56:42;;;;;;;12.23;1.90;;;;;;;;;;4994046;28;20050;-66
2023/12/22 10:59:11;;;;;;;11.88;2.05;;;;;;;;;;4999303;28;20042;-66
2023/12/22 11:01:38;;;;;;;15.30;2.35;;;;;;;;;;5013842;28;20196;-66
2023/12/22 11:04:06;;;;;;;10.00;1.50;;;;;;;;;;4998109;28;20397;-66
2023/12/22 11:06:36;;;;;;;14.82;2.10;;;;;;;;;;4993771;28;20057;-65
2023/12/22 11:09:10;;;;;;;13.73;2.20;;;;;;;;;;4993798;28;20054;-65
2023/12/22 11:11:37;;;;;;;9.20;1.70;;;;;;;;;;4991800;28;20569;-65
2023/12/22 11:14:04;;;;;;;12.70;2.30;;;;;;;;;;4993608;28;20057;-65
2023/12/22 11:16:30;;;;;;;9.60;1.60;;;;;;;;;;4993750;28;20046;-65
2023/12/22 11:18:57;;;;;;;10.55;1.40;;;;;;;;;;4995624;28;20496;-66
2023/12/22 11:21:24;;;;;;;9.02;1.23;;;;;;;;;;4993077;28;20093;-65
2023/12/22 11:23:53;;;;;;;8.25;1.60;;;;;;;;;;4993684;28;20042;-66
2023/12/22 11:26:20;;;;;;;8.10;1.55;;;;;;;;;;5004664;28;20141;-66
2023/12/22 11:28:47;;;;;;;7.25;1.10;;;;;;;;;;4992762;28;20042;-66
2023/12/22 11:31:14;;;;;;;5.95;1.13;;;;;;;;;;4992896;28;20058;-65
2023/12/22 11:33:50;;;;;;;6.57;1.33;;;;;;;;;;4993479;28;20042;-66
2023/12/22 11:36:17;;;;;;;7.78;1.17;;;;;;;;;;4993023;28;20548;-66
2023/12/22 11:38:44;;;;;;;4.32;0.82;;;;;;;;;;4992858;28;20485;-66
2023/12/22 11:41:13;;;;;;;14.30;1.05;;;;;;;;;;4992844;28;20042;-66
2023/12/22 11:43:40;;;;;;;9.27;1.60;;;;;;;;;;5001118;28;20066;-66
2023/12/22 11:46:06;;;;;;;6.13;1.33;;;;;;;;;;5012884;28;20397;-66
2023/12/22 11:48:33;;;;;;;9.25;1.42;;;;;;;;;;4996007;28;20042;-66
2023/12/22 11:50:59;;;;;;;9.52;1.70;;;;;;;;;;4992558;28;20076;-65
2023/12/22 11:53:26;;;;;;;8.98;1.63;;;;;;;;;;4993467;28;20103;-65
2023/12/22 11:56:07;;;;;;;5.68;0.93;;;;;;;;;;4992279;28;20057;-65
2023/12/22 11:58:34;;;;;;;10.02;1.30;;;;;;;;;;5001302;28;20469;-65
2023/12/22 12:01:03;;;;;;;10.15;1.52;;;;;;;;;;4993524;28;20049;-65
2023/12/22 12:03:31;;;;;;;6.65;0.93;;;;;;;;;;4993171;28;20051;-66
2023/12/22 12:06:17;;;;;;;11.57;1.33;;;;;;;;;;4991586;28;20113;-65
2023/12/22 12:08:43;;;;;;;6.65;1.23;;;;;;;;;;4992489;28;20871;-65
2023/12/22 12:11:10;;;;;;;10.90;1.73;;;;;;;;;;4992318;28;20097;-65
2023/12/22 12:13:38;;;;;;;6.57;1.15;;;;;;;;;;4993106;28;20038;-65
2023/12/22 12:16:07;;;;;;;5.28;1.20;;;;;;;;;;4992697;28;20077;-65
2023/12/22 12:18:33;;;;;;;7.47;1.00;;;;;;;;;;4995806;28;20584;-65
2023/12/22 12:21:00;;;;;;;12.32;1.50;;;;;;;;;;5012099;28;20042;-65
2023/12/22 12:23:30;;;;;;;6.40;1.20;;;;;;;;;;5012720;28;20424;-65
2023/12/22 12:25:56;;;;;;;11.07;1.10;;;;;;;;;;5003737;28;20074;-65
2023/12/22 12:28:26;;;;;;;10.27;1.35;;;;;;;;;;5010062;28;20096;-65
2023/12/22 12:30:59;;;;;;;12.07;1.30;;;;;;;;;;5011369;28;20099;-65
2023/12/22 12:33:26;;;;;;;8.35;1.33;;;;;;;;;;4992508;28;20065;-65
2023/12/22 12:35:57;;;;;;;13.52;1.63;;;;;;;;;;4992274;28;20050;-65
2023/12/22 12:38:24;;;;;;;12.40;1.60;;;;;;;;;;4992203;28;20038;-65
2023/12/22 12:40:51;;;;;;;9.95;1.60;;;;;;;;;;4991399;28;20101;-65
2023/12/22 12:43:18;;;;;;;10.85;1.55;;;;;;;;;;4992460;28;20133;-65
2023/12/22 12:45:45;;;;;;;13.45;1.50;;;;;;;;;;4992589;28;20049;-64
2023/12/22 12:48:11;;;;;;;14.75;1.27;;;;;;;;;;5001740;28;20034;-64
2023/12/22 12:50:38;;;;;;;13.85;2.08;;;;;;;;;;5011773;28;20044;-64
2023/12/22 12:53:07;;;;;;;12.88;2.03;;;;;;;;;;5011355;28;20420;-64
2023/12/22 12:55:33;;;;;;;13.10;2.08;;;;;;;;;;5011663;28;20412;-65
2023/12/22 12:57:59;;;;;;;11.77;1.70;;;;;;;;;;5011825;28;20049;-65
2023/12/22 13:00:25;;;;;;;14.65;1.75;;;;;;;;;;5001118;28;20531;-65
2023/12/22 13:03:02;;;;;;;9.55;1.70;;;;;;;;;;4991658;28;20532;-66
2023/12/22 13:05:33;;;;;;;11.63;1.60;;;;;;;;;;4992399;28;20045;-65
2023/12/22 13:08:08;;;;;;;16.52;2.47;;;;;;;;;;4999002;28;20123;-65
2023/12/22 13:10:35;;;;;;;13.32;2.17;;;;;;;;;;5011231;28;20042;-65
2023/12/22 13:13:01;;;;;;;10.63;1.85;;;;;;;;;;4996967;28;20050;-65
2023/12/22 13:15:27;;;;;;;8.38;1.77;;;;;;;;;;4994287;28;20048;-65
2023/12/22 13:17:53;;;;;;;11.93;1.50;;;;;;;;;;5010686;28;20049;-65
2023/12/22 13:20:19;;;;;;;15.93;1.77;;;;;;;;;;4992823;28;20095;-66
2023/12/22 13:22:45;;;;;;;8.77;1.45;;;;;;;;;;4991752;28;20042;-66
2023/12/22 13:25:11;;;;;;;10.38;1.73;;;;;;;;;;4993534;28;20117;-65
2023/12/22 13:27:50;;;;;;;11.90;1.70;;;;;;;;;;5003437;28;20121;-65
2023/12/22 13:30:40;;;;;;;10.35;1.55;;;;;;;;;;5010931;28;20057;-65
2023/12/22 13:33:06;;;;;;;10.45;1.27;;;;;;;;;;4996293;28;20516;-65
2023/12/22 13:35:36;;;;;;;11.55;1.27;;;;;;;;;;4993842;28;20162;-65
2023/12/22 13:38:06;;;;;;;16.15;1.58;;;;;;;;;;5008056;28;20038;-65
2023/12/22 13:40:32;;;;;;;9.10;1.58;;;;;;;;;;4989946;28;20473;-65
2023/12/22 13:43:00;;;;;;;7.43;1.02;;;;;;;;;;4991557;28;20054;-65
2023/12/22 13:45:26;;;;;;;9.18;1.10;;;;;;;;;;4991759;28;20038;-65
2023/12/22 13:47:53;;;;;;;9.40;1.75;;;;;;;;;;4991086;28;20100;-65
2023/12/22 13:50:19;;;;;;;7.72;1.35;;;;;;;;;;4991829;28;20126;-65
2023/12/22 13:52:45;;;;;;;12.73;2.13;;;;;;;;;;5005963;28;20057;-65
2023/12/22 13:55:12;;;;;;;16.17;2.10;;;;;;;;;;5015022;28;20037;-65
2023/12/22 13:57:38;;;;;;;11.55;1.52;;;;;;;;;;4997225;28;20034;-65
2023/12/22 14:00:19;;;;;;;11.93;1.60;;;;;;;;;;4995328;28;20408;-65
2023/12/22 14:02:46;;;;;;;13.45;1.52;;;;;;;;;;4995341;28;20074;-65
2023/12/22 14:05:12;;;;;;;10.35;1.65;;;;;;;;;;4995365;28;20042;-65
2023/12/22 14:07:38;;;;;;;6.00;1.25;;;;;;;;;;4995575;28;20038;-65
2023/12/22 14:10:07;;;;;;;11.13;1.55;;;;;;;;;;4995380;28;20493;-66
2023/12/22 14:12:34;;;;;;;8.38;1.40;;;;;;;;;;4995662;28;20050;-66
2023/12/22 14:15:00;;;;;;;8.32;1.42;;;;;;;;;;4995740;28;20069;-65
2023/12/22 14:17:27;;;;;;;4.78;1.17;;;;;;;;;;4994984;28;20043;-65
2023/12/22 14:19:53;;;;;;;6.03;0.80;;;;;;;;;;4994376;28;20046;-65
2023/12/22 14:22:19;;;;;;;6.15;1.08;;;;;;;;;;4994566;28;20038;-64
2023/12/22 14:24:45;;;;;;;6.53;0.90;;;;;;;;;;4994864;28;20042;-68
2023/12/22 14:27:11;;;;;;;4.47;0.95;;;;;;;;;;5013249;28;20048;-68
2023/12/22 14:29:40;;;;;;;7.00;0.82;;;;;;;;;;5014354;28;20054;-69
2023/12/22 14:32:12;;;;;;;4.65;0.80;;;;;;;;;;5014702;28;20085;-69